Time;durP1;ratioP1;P1;durP2;ratioP2;P2;SDS_P1;SDS_P2;PMS_P1;PMS_P2;Temp;Humidity;BMP_temperature;BMP_pressure;BME280_temperature;BME280_humidity;BME280_pressure;Samples;Min_cycle;Max_cycle;Signal;HPM_P1;HPM_P2
2023/08/26 00:01:45;;;;;;;6.73;5.43;;;23.30;99.90;;;;;;4994668;28;21017;-69
2023/08/26 00:04:12;;;;;;;10.60;6.43;;;23.30;99.90;;;;;;4993985;28;20938;-68
2023/08/26 00:06:39;;;;;;;10.80;5.67;;;23.20;99.90;;;;;;4995413;28;20859;-67
2023/08/26 00:09:07;;;;;;;8.63;5.80;;;23.20;99.90;;;;;;4995784;28;20514;-67
2023/08/26 00:11:35;;;;;;;12.20;6.17;;;23.10;99.90;;;;;;4994231;28;20474;-67
2023/08/26 00:14:02;;;;;;;6.63;5.70;;;23.00;99.90;;;;;;4993712;28;21192;-67
2023/08/26 00:16:28;;;;;;;9.70;5.70;;;22.90;99.90;;;;;;4994854;28;20539;-68
2023/08/26 00:18:59;;;;;;;12.43;7.00;;;22.90;99.90;;;;;;4995121;28;20482;-67
2023/08/26 00:21:26;;;;;;;9.87;6.00;;;22.90;99.90;;;;;;4995167;28;20484;-67
2023/08/26 00:23:53;;;;;;;7.67;6.30;;;22.80;99.90;;;;;;4994808;28;20832;-68
2023/08/26 00:26:21;;;;;;;15.90;6.53;;;22.70;99.90;;;;;;4992826;28;20484;-67
2023/08/26 00:28:48;;;;;;;14.00;7.30;;;22.70;99.90;;;;;;4994414;28;20493;-68
2023/08/26 00:31:15;;;;;;;11.13;6.40;;;22.60;99.90;;;;;;4993933;28;20470;-69
2023/08/26 00:33:42;;;;;;;9.53;6.00;;;22.60;99.90;;;;;;4992640;28;20492;-69
2023/08/26 00:36:09;;;;;;;9.60;5.70;;;22.50;99.90;;;;;;4991660;28;20464;-69
2023/08/26 00:38:36;;;;;;;6.13;5.53;;;22.50;99.90;;;;;;4992899;28;20557;-70
2023/08/26 00:41:02;;;;;;;6.53;5.30;;;22.40;99.90;;;;;;4992911;28;20477;-68
2023/08/26 00:43:31;;;;;;;10.47;5.60;;;22.40;99.90;;;;;;4992093;28;20487;-69
2023/08/26 00:45:59;;;;;;;8.63;5.07;;;22.40;99.90;;;;;;4981935;28;20988;-68
2023/08/26 00:48:26;;;;;;;9.63;5.47;;;22.40;99.90;;;;;;4982626;28;20482;-67
2023/08/26 00:50:54;;;;;;;10.47;6.37;;;22.40;99.90;;;;;;4995548;28;20534;-68
2023/08/26 00:53:23;;;;;;;10.00;5.63;;;22.40;99.90;;;;;;4993750;28;20486;-68
2023/08/26 00:55:51;;;;;;;6.40;5.63;;;22.30;99.90;;;;;;4993238;28;21627;-68
2023/08/26 00:58:19;;;;;;;6.80;5.03;;;22.30;99.90;;;;;;4995308;28;21219;-69
2023/08/26 01:00:48;;;;;;;14.07;7.30;;;22.20;99.90;;;;;;4994944;28;20528;-71
2023/08/26 01:03:15;;;;;;;5.90;4.80;;;22.10;99.90;;;;;;4994014;28;20504;-68
2023/08/26 01:05:42;;;;;;;8.87;5.33;;;22.00;99.90;;;;;;4993966;28;20742;-68
2023/08/26 01:08:09;;;;;;;8.73;6.10;;;22.00;99.90;;;;;;4993404;28;20444;-68
2023/08/26 01:10:43;;;;;;;10.87;6.00;;;22.00;99.90;;;;;;4992738;28;20467;-69
2023/08/26 01:13:14;;;;;;;7.73;5.30;;;22.00;99.90;;;;;;4988038;28;20547;-68
2023/08/26 01:15:43;;;;;;;7.70;5.30;;;21.90;99.90;;;;;;4989432;28;20473;-68
2023/08/26 01:18:13;;;;;;;7.13;6.10;;;21.80;99.90;;;;;;4990311;28;20948;-68
2023/08/26 01:20:42;;;;;;;13.70;4.83;;;21.80;99.90;;;;;;4989867;28;20452;-68
2023/08/26 01:23:13;;;;;;;7.67;5.47;;;21.80;99.90;;;;;;4988982;28;20779;-68
2023/08/26 01:25:42;;;;;;;5.50;4.90;;;21.70;99.90;;;;;;4991013;28;20581;-68
2023/08/26 01:28:09;;;;;;;11.80;4.60;;;21.70;99.90;;;;;;4990311;28;20961;-70
2023/08/26 01:30:36;;;;;;;6.10;5.47;;;21.60;99.90;;;;;;4991623;28;20448;-68
2023/08/26 01:33:11;;;;;;;6.73;5.07;;;21.60;99.90;;;;;;4990956;28;20473;-68
2023/08/26 01:35:39;;;;;;;6.13;5.53;;;21.60;99.90;;;;;;4992583;28;20562;-70
2023/08/26 01:38:08;;;;;;;12.43;5.60;;;21.60;99.90;;;;;;4991439;28;20540;-68
2023/08/26 01:40:35;;;;;;;7.97;5.87;;;21.50;99.90;;;;;;4990494;28;20522;-70
2023/08/26 01:43:04;;;;;;;7.53;6.20;;;21.50;99.90;;;;;;4990367;28;20452;-68
2023/08/26 01:45:31;;;;;;;8.00;6.00;;;21.50;99.90;;;;;;4990410;28;20480;-68
2023/08/26 01:47:58;;;;;;;5.40;4.43;;;21.60;99.90;;;;;;4990115;28;20540;-69
2023/08/26 01:50:25;;;;;;;7.87;4.93;;;21.60;99.90;;;;;;4990394;28;20599;-73
2023/08/26 01:52:51;;;;;;;13.03;6.63;;;21.60;99.90;;;;;;4983683;28;20875;-68
2023/08/26 01:55:18;;;;;;;4.93;4.43;;;21.60;99.90;;;;;;5001708;28;21082;-69
2023/08/26 01:57:45;;;;;;;14.40;5.50;;;21.60;99.90;;;;;;4990036;28;20474;-68
2023/08/26 02:00:16;;;;;;;8.27;5.87;;;21.60;99.90;;;;;;4994797;28;20521;-69
2023/08/26 02:02:43;;;;;;;9.43;6.60;;;21.60;99.90;;;;;;4988515;28;21115;-68
2023/08/26 02:05:09;;;;;;;6.17;4.97;;;21.60;99.90;;;;;;4990069;28;21043;-68
2023/08/26 02:07:36;;;;;;;16.73;6.13;;;21.50;99.90;;;;;;4989653;28;21158;-69
2023/08/26 02:10:03;;;;;;;13.97;5.70;;;21.60;99.90;;;;;;4988688;28;21059;-68
2023/08/26 02:12:30;;;;;;;10.30;6.00;;;21.60;99.90;;;;;;4990169;28;20466;-67
2023/08/26 02:14:57;;;;;;;7.47;5.80;;;21.60;99.90;;;;;;4987697;28;20544;-67
2023/08/26 02:17:25;;;;;;;5.63;5.10;;;21.60;99.90;;;;;;4990854;28;20553;-67
2023/08/26 02:19:52;;;;;;;11.73;6.80;;;21.50;99.90;;;;;;4992076;28;20482;-68
2023/08/26 02:22:19;;;;;;;8.33;5.53;;;21.50;99.90;;;;;;4993392;28;20833;-68
2023/08/26 02:24:47;;;;;;;6.43;5.17;;;21.40;99.90;;;;;;4992805;28;22118;-70
2023/08/26 02:27:14;;;;;;;5.60;4.90;;;21.40;99.90;;;;;;4989821;28;20520;-67
2023/08/26 02:29:41;;;;;;;6.13;5.07;;;21.40;99.90;;;;;;4989160;28;20562;-68
2023/08/26 02:32:08;;;;;;;16.50;6.00;;;21.30;99.90;;;;;;4988547;28;20531;-67
2023/08/26 02:34:37;;;;;;;5.50;4.60;;;21.20;99.90;;;;;;4989743;28;20447;-68
2023/08/26 02:37:04;;;;;;;9.93;4.93;;;21.10;99.90;;;;;;4989330;28;20494;-69
2023/08/26 02:39:31;;;;;;;4.70;3.80;;;21.20;99.90;;;;;;4989633;28;20556;-68
2023/08/26 02:41:58;;;;;;;6.03;4.73;;;21.00;99.90;;;;;;4987271;28;20527;-71
2023/08/26 02:44:25;;;;;;;5.80;4.07;;;20.90;99.90;;;;;;4988643;28;20448;-68
2023/08/26 02:46:51;;;;;;;7.33;4.67;;;20.90;99.90;;;;;;4990367;28;20496;-68
2023/08/26 02:49:18;;;;;;;3.80;3.43;;;20.90;99.90;;;;;;4989560;28;20879;-68
2023/08/26 02:51:47;;;;;;;8.03;4.97;;;20.90;99.90;;;;;;4989988;28;20493;-69
2023/08/26 02:54:14;;;;;;;9.23;3.90;;;20.90;99.90;;;;;;4987987;28;20452;-68
2023/08/26 02:56:41;;;;;;;4.63;3.93;;;20.80;99.90;;;;;;4989275;28;20545;-68
2023/08/26 02:59:08;;;;;;;12.63;4.50;;;20.70;99.90;;;;;;4993734;28;20908;-68
2023/08/26 03:01:39;;;;;;;6.70;4.73;;;20.70;99.90;;;;;;4992622;28;21012;-68
2023/08/26 03:04:06;;;;;;;5.60;4.43;;;20.70;99.90;;;;;;4982396;28;20478;-67
2023/08/26 03:06:33;;;;;;;5.30;4.17;;;20.60;99.90;;;;;;4994198;28;20561;-68
2023/08/26 03:09:02;;;;;;;9.13;4.07;;;20.50;99.90;;;;;;4994032;28;20559;-67
2023/08/26 03:11:29;;;;;;;5.20;4.17;;;20.50;99.90;;;;;;4994530;28;21693;-70
2023/08/26 03:13:56;;;;;;;5.63;4.77;;;20.50;99.90;;;;;;4988994;28;20598;-67
2023/08/26 03:16:23;;;;;;;6.83;4.20;;;20.40;99.90;;;;;;4984766;28;21088;-68
2023/08/26 03:18:50;;;;;;;5.50;4.70;;;20.40;99.90;;;;;;4988579;28;20880;-67
2023/08/26 03:21:16;;;;;;;6.57;4.70;;;20.40;99.90;;;;;;4989412;28;20936;-67
2023/08/26 03:23:43;;;;;;;5.40;4.40;;;20.50;99.90;;;;;;4979825;28;20614;-68
2023/08/26 03:26:11;;;;;;;4.20;3.57;;;20.50;99.90;;;;;;4987075;28;20848;-68
2023/08/26 03:28:38;;;;;;;15.10;5.40;;;20.60;99.90;;;;;;4979243;28;20953;-68
2023/08/26 03:31:06;;;;;;;6.60;4.60;;;20.50;99.90;;;;;;4983647;28;20471;-66
2023/08/26 03:33:34;;;;;;;8.87;5.33;;;20.50;99.90;;;;;;4983965;28;20950;-66
2023/08/26 03:36:03;;;;;;;4.90;3.80;;;20.30;99.90;;;;;;4978725;28;20540;-66
2023/08/26 03:38:30;;;;;;;7.53;4.17;;;20.20;99.90;;;;;;4981762;28;20449;-66
2023/08/26 03:40:57;;;;;;;10.47;5.20;;;20.20;99.90;;;;;;4986378;28;20490;-66
2023/08/26 03:43:25;;;;;;;10.27;5.40;;;20.20;99.90;;;;;;4987860;28;20662;-66
2023/08/26 03:45:52;;;;;;;8.77;4.53;;;20.10;99.90;;;;;;4983946;28;20861;-66
2023/08/26 03:48:19;;;;;;;5.53;4.43;;;20.00;99.90;;;;;;4980765;28;20484;-66
2023/08/26 03:50:52;;;;;;;11.30;4.10;;;20.00;99.90;;;;;;4985674;28;21055;-66
2023/08/26 03:53:19;;;;;;;4.63;3.50;;;20.00;99.90;;;;;;4988346;28;20548;-66
2023/08/26 03:55:47;;;;;;;7.00;4.60;;;19.90;99.90;;;;;;4980656;28;21099;-66
2023/08/26 03:58:14;;;;;;;5.97;4.27;;;19.90;99.90;;;;;;4992125;28;20877;-66
2023/08/26 04:00:42;;;;;;;7.60;4.00;;;19.90;99.90;;;;;;4990546;28;20836;-66
2023/08/26 04:03:10;;;;;;;4.57;3.70;;;19.90;99.90;;;;;;4982814;28;20486;-66
2023/08/26 04:05:37;;;;;;;7.73;3.50;;;19.90;99.90;;;;;;4979313;28;20694;-66
2023/08/26 04:08:05;;;;;;;5.10;3.80;;;19.90;99.90;;;;;;5000639;28;20970;-66
2023/08/26 04:10:32;;;;;;;6.00;4.33;;;19.90;99.90;;;;;;4981031;28;20577;-66
2023/08/26 04:13:01;;;;;;;6.50;3.97;;;19.80;99.90;;;;;;4989185;28;20492;-66
2023/08/26 04:15:28;;;;;;;4.50;4.10;;;19.70;99.90;;;;;;4979993;28;20580;-66
2023/08/26 04:17:56;;;;;;;12.00;4.13;;;19.70;99.90;;;;;;4983498;28;20487;-66
2023/08/26 04:20:23;;;;;;;6.53;4.47;;;19.70;99.90;;;;;;4980295;28;20697;-67
2023/08/26 04:22:50;;;;;;;16.37;4.67;;;19.70;99.90;;;;;;4984143;28;20482;-67
2023/08/26 04:25:17;;;;;;;4.60;3.90;;;19.80;99.90;;;;;;4982648;28;20479;-67
2023/08/26 04:27:45;;;;;;;7.20;4.57;;;19.80;99.90;;;;;;4975533;28;20577;-67
2023/08/26 04:30:13;;;;;;;5.90;4.40;;;19.70;99.90;;;;;;5005013;28;20510;-66
2023/08/26 04:32:40;;;;;;;7.53;4.23;;;19.50;99.90;;;;;;4987330;28;20479;-67
2023/08/26 04:35:08;;;;;;;8.23;5.00;;;19.40;99.90;;;;;;4979713;28;20478;-67
2023/08/26 04:37:37;;;;;;;4.00;3.60;;;19.30;99.90;;;;;;4977269;28;20482;-67
2023/08/26 04:40:12;;;;;;;5.23;4.70;;;19.30;99.90;;;;;;4981715;28;20475;-67
2023/08/26 04:42:39;;;;;;;4.40;4.00;;;19.30;99.90;;;;;;4981787;28;20484;-67
2023/08/26 04:45:07;;;;;;;7.50;4.83;;;19.20;99.90;;;;;;4993189;28;20524;-67
2023/08/26 04:47:34;;;;;;;4.70;4.20;;;19.30;99.90;;;;;;4981377;28;20479;-67
2023/08/26 04:50:01;;;;;;;6.63;3.83;;;19.30;99.90;;;;;;4983559;28;20487;-67
2023/08/26 04:52:30;;;;;;;6.67;3.90;;;19.30;99.90;;;;;;4985242;28;20514;-67
2023/08/26 04:54:56;;;;;;;5.80;3.60;;;19.20;99.90;;;;;;4979769;28;20578;-67
2023/08/26 04:57:24;;;;;;;4.37;3.97;;;19.20;99.90;;;;;;4983954;28;20601;-67
2023/08/26 04:59:52;;;;;;;5.00;3.70;;;19.20;99.90;;;;;;4990217;28;20472;-67
2023/08/26 05:02:19;;;;;;;4.60;3.30;;;19.30;99.90;;;;;;4997028;28;20964;-66
2023/08/26 05:04:46;;;;;;;6.33;2.93;;;19.40;99.90;;;;;;4983258;28;20837;-67
2023/08/26 05:07:13;;;;;;;3.60;2.97;;;19.30;99.90;;;;;;4980938;28;21419;-66
2023/08/26 05:09:41;;;;;;;3.70;3.40;;;19.30;99.90;;;;;;4986072;28;20477;-67
2023/08/26 05:12:09;;;;;;;9.57;3.90;;;19.40;99.90;;;;;;4987650;28;21091;-66
2023/08/26 05:14:36;;;;;;;5.30;3.50;;;19.50;99.90;;;;;;4986043;28;20494;-66
2023/08/26 05:17:02;;;;;;;4.87;2.90;;;19.60;99.90;;;;;;4980785;28;20482;-66
2023/08/26 05:19:29;;;;;;;2.73;2.37;;;19.70;99.90;;;;;;4979894;28;20490;-67
2023/08/26 05:21:57;;;;;;;7.27;3.97;;;19.80;99.90;;;;;;4983347;28;20570;-66
2023/08/26 05:24:24;;;;;;;6.17;3.40;;;19.90;99.90;;;;;;4979329;28;20494;-67
2023/08/26 05:26:52;;;;;;;2.67;2.43;;;19.90;99.90;;;;;;4981416;28;21070;-66
2023/08/26 05:29:19;;;;;;;4.70;3.20;;;19.80;99.90;;;;;;4977807;28;20504;-66
2023/08/26 05:31:47;;;;;;;3.80;3.17;;;19.70;99.90;;;;;;4994638;28;20912;-66
2023/08/26 05:34:13;;;;;;;3.87;3.20;;;19.60;99.90;;;;;;4978024;28;20561;-66
2023/08/26 05:36:41;;;;;;;6.43;2.80;;;19.50;99.90;;;;;;4979998;28;20566;-67
2023/08/26 05:39:08;;;;;;;2.70;2.50;;;19.40;99.90;;;;;;4985294;28;20953;-66
2023/08/26 05:41:35;;;;;;;3.13;2.67;;;19.30;99.90;;;;;;4995900;28;20480;-67
2023/08/26 05:44:03;;;;;;;4.00;2.60;;;19.20;99.90;;;;;;4980298;28;20485;-66
2023/08/26 05:46:30;;;;;;;3.50;2.93;;;19.20;99.90;;;;;;4971007;28;20960;-66
2023/08/26 05:48:58;;;;;;;3.10;2.60;;;19.20;99.90;;;;;;4977239;28;20471;-67
2023/08/26 05:51:26;;;;;;;7.50;2.80;;;19.30;99.90;;;;;;5003735;28;20475;-67
2023/08/26 05:53:53;;;;;;;3.53;2.70;;;19.40;99.90;;;;;;4989118;28;20468;-66
2023/08/26 05:56:20;;;;;;;3.73;2.63;;;19.40;99.90;;;;;;4979518;28;20481;-67
2023/08/26 05:58:48;;;;;;;13.20;3.60;;;19.50;99.90;;;;;;4979685;28;20540;-67
2023/08/26 06:01:16;;;;;;;3.10;2.63;;;19.50;99.90;;;;;;4982379;28;20447;-67
2023/08/26 06:03:43;;;;;;;5.73;4.63;;;19.50;99.90;;;;;;4981762;28;20461;-67
2023/08/26 06:06:10;;;;;;;6.80;2.37;;;19.40;99.90;;;;;;4980142;28;20479;-67
2023/08/26 06:08:37;;;;;;;3.77;2.50;;;19.50;99.90;;;;;;4983790;28;20621;-67
2023/08/26 06:11:04;;;;;;;3.63;1.87;;;19.40;99.90;;;;;;4981270;28;20577;-67
2023/08/26 06:13:31;;;;;;;5.97;3.20;;;19.40;99.90;;;;;;4978160;28;20474;-67
2023/08/26 06:15:58;;;;;;;4.00;2.40;;;19.40;99.90;;;;;;4977019;28;20598;-66
2023/08/26 06:18:26;;;;;;;5.20;2.50;;;19.40;99.90;;;;;;4979535;28;20478;-66
2023/08/26 06:20:54;;;;;;;7.03;4.23;;;19.40;99.90;;;;;;4982755;28;20475;-66
2023/08/26 06:23:21;;;;;;;3.03;2.23;;;19.50;99.90;;;;;;4982168;28;20994;-66
2023/08/26 06:25:51;;;;;;;7.10;3.00;;;19.50;99.90;;;;;;4979110;28;20565;-67
2023/08/26 06:28:18;;;;;;;2.60;2.03;;;19.50;99.90;;;;;;4980762;28;20482;-67
2023/08/26 06:30:45;;;;;;;4.77;3.60;;;19.50;99.90;;;;;;4981865;28;20490;-67
2023/08/26 06:33:12;;;;;;;6.27;2.13;;;19.40;99.90;;;;;;4982830;28;20896;-67
2023/08/26 06:35:41;;;;;;;3.43;2.53;;;19.50;99.90;;;;;;4977453;28;20450;-67
2023/08/26 06:38:08;;;;;;;4.47;2.60;;;19.60;99.90;;;;;;4985535;28;20536;-67
2023/08/26 06:40:35;;;;;;;3.63;2.20;;;19.70;99.90;;;;;;4984742;28;20464;-66
2023/08/26 06:43:04;;;;;;;3.43;2.57;;;19.90;99.90;;;;;;4996449;28;20478;-67
2023/08/26 06:45:31;;;;;;;3.90;2.50;;;20.10;99.90;;;;;;4990061;28;20483;-66
2023/08/26 06:47:58;;;;;;;3.03;2.13;;;20.30;99.90;;;;;;4985444;28;20478;-67
2023/08/26 06:50:25;;;;;;;5.67;2.10;;;20.50;99.90;;;;;;4978371;28;20508;-67
2023/08/26 06:52:55;;;;;;;7.17;2.50;;;20.80;99.90;;;;;;4990652;28;20488;-67
2023/08/26 06:55:21;;;;;;;2.80;2.20;;;20.80;99.90;;;;;;4992907;28;20559;-66
2023/08/26 06:57:48;;;;;;;3.57;2.07;;;20.90;99.60;;;;;;4994009;28;20901;-67
2023/08/26 07:00:18;;;;;;;6.23;1.93;;;21.20;99.70;;;;;;4996067;28;20567;-67
2023/08/26 07:02:45;;;;;;;9.30;2.13;;;21.60;99.40;;;;;;4987537;28;20536;-67
2023/08/26 07:05:12;;;;;;;4.93;2.87;;;22.00;99.60;;;;;;4981270;28;20578;-67
2023/08/26 07:07:39;;;;;;;3.57;1.87;;;22.40;99.00;;;;;;4984499;28;20461;-67
2023/08/26 07:10:08;;;;;;;12.20;2.23;;;22.50;97.50;;;;;;4983020;28;20450;-67
2023/08/26 07:12:35;;;;;;;3.60;2.10;;;22.90;98.40;;;;;;4987350;28;20517;-67
2023/08/26 07:15:03;;;;;;;3.73;1.93;;;23.00;97.50;;;;;;4980144;28;21051;-67
2023/08/26 07:17:30;;;;;;;9.63;2.60;;;23.00;97.20;;;;;;4978103;28;20892;-67
2023/08/26 07:19:56;;;;;;;2.70;2.40;;;23.10;97.20;;;;;;4979868;28;20886;-66
2023/08/26 07:22:23;;;;;;;6.00;1.90;;;22.90;96.70;;;;;;4981746;28;20808;-66
2023/08/26 07:24:50;;;;;;;3.40;2.23;;;22.50;96.40;;;;;;4978489;28;20896;-67
2023/08/26 07:27:18;;;;;;;5.97;3.33;;;22.20;96.70;;;;;;4982980;28;21205;-66
2023/08/26 07:29:45;;;;;;;3.30;2.10;;;22.10;98.50;;;;;;4979233;28;20885;-66
2023/08/26 07:32:12;;;;;;;2.63;2.10;;;22.10;98.40;;;;;;4985753;28;20486;-67
2023/08/26 07:34:39;;;;;;;2.50;2.07;;;22.10;98.20;;;;;;4980232;28;20561;-67
2023/08/26 07:37:06;;;;;;;5.50;2.83;;;22.40;97.80;;;;;;4973636;28;20480;-68
2023/08/26 07:39:33;;;;;;;4.60;2.40;;;22.40;98.10;;;;;;5001234;28;20533;-66
2023/08/26 07:42:00;;;;;;;6.17;2.10;;;22.40;98.00;;;;;;4990330;28;20491;-66
2023/08/26 07:44:28;;;;;;;6.37;2.30;;;22.30;98.20;;;;;;4988823;28;20839;-66
2023/08/26 07:46:56;;;;;;;7.17;2.00;;;22.10;97.20;;;;;;4979602;28;20569;-67
2023/08/26 07:49:23;;;;;;;3.13;2.20;;;22.20;98.10;;;;;;4981679;28;20969;-67
2023/08/26 07:51:50;;;;;;;3.90;2.10;;;22.10;97.50;;;;;;4989526;28;20912;-67
2023/08/26 07:54:17;;;;;;;2.50;1.97;;;22.20;97.30;;;;;;4978967;28;20482;-67
2023/08/26 07:56:44;;;;;;;3.33;2.00;;;22.30;97.20;;;;;;5006514;28;21303;-67
2023/08/26 07:59:11;;;;;;;3.37;2.13;;;22.30;96.50;;;;;;4990869;28;20453;-67
2023/08/26 08:01:39;;;;;;;2.53;1.40;;;22.50;96.60;;;;;;4992971;28;20986;-67
2023/08/26 08:04:07;;;;;;;3.90;2.10;;;22.50;96.30;;;;;;4985743;28;20506;-67
2023/08/26 08:06:34;;;;;;;8.33;1.80;;;22.50;95.90;;;;;;4984817;28;20956;-67
2023/08/26 08:09:00;;;;;;;3.80;2.40;;;22.60;95.90;;;;;;4990692;28;20477;-67
2023/08/26 08:11:27;;;;;;;4.73;2.00;;;22.60;95.20;;;;;;4990038;28;20539;-68
2023/08/26 08:13:54;;;;;;;3.83;2.30;;;22.70;95.40;;;;;;4981781;28;20903;-68
2023/08/26 08:16:21;;;;;;;2.90;2.00;;;22.70;95.60;;;;;;4981186;28;20489;-68
2023/08/26 08:18:50;;;;;;;3.13;1.80;;;22.60;96.30;;;;;;4982599;28;20480;-67
2023/08/26 08:21:16;;;;;;;4.07;2.33;;;22.60;95.60;;;;;;4989333;28;20817;-68
2023/08/26 08:23:45;;;;;;;2.20;2.00;;;22.50;96.90;;;;;;4986985;28;20484;-67
2023/08/26 08:26:12;;;;;;;8.23;3.80;;;22.60;97.60;;;;;;4979614;28;20998;-67
2023/08/26 08:28:39;;;;;;;6.90;2.73;;;22.40;97.10;;;;;;4975629;28;20883;-67
2023/08/26 08:31:06;;;;;;;2.80;2.10;;;22.30;96.30;;;;;;5008721;28;20692;-67
2023/08/26 08:33:34;;;;;;;4.10;2.10;;;22.50;97.60;;;;;;4987850;28;20552;-67
2023/08/26 08:36:03;;;;;;;4.63;2.03;;;22.60;96.90;;;;;;4984432;28;20463;-68
2023/08/26 08:38:30;;;;;;;6.27;2.00;;;22.60;96.70;;;;;;4983413;28;20466;-67
2023/08/26 08:40:58;;;;;;;2.30;1.50;;;22.80;95.90;;;;;;4990996;28;20573;-68
2023/08/26 08:43:29;;;;;;;2.17;1.20;;;22.80;93.50;;;;;;4992795;28;20491;-67
2023/08/26 08:45:57;;;;;;;2.33;1.50;;;22.90;93.60;;;;;;4979968;28;20469;-67
2023/08/26 08:48:24;;;;;;;3.13;1.20;;;22.90;92.70;;;;;;4981081;28;20921;-67
2023/08/26 08:50:54;;;;;;;2.67;1.37;;;22.90;93.50;;;;;;4988106;28;20780;-68
2023/08/26 08:53:30;;;;;;;5.10;1.70;;;22.90;93.40;;;;;;4987295;28;20464;-67
2023/08/26 08:55:57;;;;;;;3.23;2.20;;;22.80;93.50;;;;;;4985362;28;20504;-67
2023/08/26 08:58:24;;;;;;;3.90;1.83;;;22.60;94.00;;;;;;4985884;28;21008;-68
2023/08/26 09:00:52;;;;;;;2.50;1.30;;;22.50;94.10;;;;;;4986917;28;20481;-68
2023/08/26 09:03:19;;;;;;;3.73;1.90;;;22.40;93.30;;;;;;4991327;28;20894;-68
2023/08/26 09:05:46;;;;;;;3.67;1.87;;;22.40;94.20;;;;;;4979707;28;20461;-68
2023/08/26 09:08:17;;;;;;;3.43;1.80;;;22.30;93.80;;;;;;4982515;28;20577;-68
2023/08/26 09:10:47;;;;;;;2.57;1.90;;;22.40;94.00;;;;;;4981681;28;21034;-68
2023/08/26 09:13:16;;;;;;;1.90;1.43;;;22.40;94.40;;;;;;4988722;28;20467;-67
2023/08/26 09:15:43;;;;;;;4.30;2.30;;;22.40;94.50;;;;;;4988203;28;20479;-68
2023/08/26 09:18:12;;;;;;;4.03;2.07;;;22.40;94.50;;;;;;4987502;28;20544;-67
2023/08/26 09:20:39;;;;;;;3.40;1.70;;;22.50;95.50;;;;;;4985772;28;20461;-68
2023/08/26 09:23:07;;;;;;;2.77;1.97;;;22.50;95.50;;;;;;4985056;28;20481;-67
2023/08/26 09:25:35;;;;;;;2.20;1.73;;;22.50;95.40;;;;;;4978220;28;20552;-68
2023/08/26 09:28:04;;;;;;;3.40;2.23;;;22.50;94.60;;;;;;4984796;28;20796;-68
2023/08/26 09:30:31;;;;;;;6.67;1.83;;;22.50;95.40;;;;;;4979611;28;20841;-68
2023/08/26 09:32:58;;;;;;;3.90;1.97;;;22.30;95.70;;;;;;4999779;28;20899;-68
2023/08/26 09:35:26;;;;;;;5.17;2.07;;;22.40;95.90;;;;;;4974961;28;20490;-68
2023/08/26 09:37:58;;;;;;;3.10;2.27;;;22.40;96.10;;;;;;4986904;28;20971;-68
2023/08/26 09:40:25;;;;;;;4.90;2.13;;;22.40;95.90;;;;;;4990969;28;20451;-69
2023/08/26 09:42:52;;;;;;;3.20;2.00;;;22.30;95.80;;;;;;4981483;28;20926;-68
2023/08/26 09:45:21;;;;;;;7.00;2.47;;;22.20;98.00;;;;;;4977777;28;20501;-68
2023/08/26 09:47:50;;;;;;;2.53;2.20;;;22.10;96.70;;;;;;4982980;28;20536;-68
2023/08/26 09:50:18;;;;;;;2.87;2.50;;;22.20;96.80;;;;;;4981984;28;20481;-67
2023/08/26 09:52:46;;;;;;;3.27;2.90;;;22.10;96.80;;;;;;4989105;28;21130;-68
2023/08/26 09:55:13;;;;;;;6.20;2.53;;;22.20;96.60;;;;;;4993850;28;21143;-67
2023/08/26 09:57:40;;;;;;;3.10;1.97;;;22.10;96.50;;;;;;4988844;28;20562;-68
2023/08/26 10:00:10;;;;;;;4.13;2.73;;;21.90;96.40;;;;;;4981084;28;21213;-68
2023/08/26 10:02:42;;;;;;;5.00;2.53;;;22.00;97.00;;;;;;4979510;28;20466;-69
2023/08/26 10:05:16;;;;;;;3.80;1.73;;;22.10;96.30;;;;;;4991040;28;20802;-67
2023/08/26 10:07:47;;;;;;;2.40;1.87;;;22.10;96.50;;;;;;4968939;28;20880;-68
2023/08/26 10:10:20;;;;;;;4.40;2.80;;;22.30;96.70;;;;;;4985693;28;20483;-67
2023/08/26 10:12:50;;;;;;;4.23;2.87;;;22.20;96.60;;;;;;4968523;28;20581;-68
2023/08/26 10:15:20;;;;;;;2.77;1.80;;;22.30;95.80;;;;;;4971206;28;20938;-67
2023/08/26 10:17:50;;;;;;;2.70;2.20;;;22.30;96.90;;;;;;4996693;28;20676;-68
2023/08/26 10:20:18;;;;;;;3.67;2.33;;;22.20;95.50;;;;;;4990854;28;20479;-67
2023/08/26 10:22:45;;;;;;;3.80;2.23;;;22.40;95.80;;;;;;4983386;28;20485;-66
2023/08/26 10:25:12;;;;;;;3.70;1.87;;;22.40;97.20;;;;;;4978676;28;20478;-68
2023/08/26 10:27:40;;;;;;;4.13;2.40;;;22.40;95.70;;;;;;4980077;28;20944;-68
2023/08/26 10:30:08;;;;;;;3.63;2.27;;;22.50;95.00;;;;;;4982064;28;20460;-66
2023/08/26 10:32:43;;;;;;;3.50;2.43;;;22.50;94.90;;;;;;4981617;28;20780;-67
2023/08/26 10:35:13;;;;;;;2.77;1.60;;;22.60;94.90;;;;;;4977634;28;20779;-67
2023/08/26 10:37:41;;;;;;;3.60;1.87;;;22.80;94.00;;;;;;4988653;28;20539;-67
2023/08/26 10:40:09;;;;;;;4.20;2.00;;;22.90;95.40;;;;;;4995227;28;20468;-67
2023/08/26 10:42:37;;;;;;;4.90;1.60;;;22.90;95.30;;;;;;4986229;28;20491;-67
2023/08/26 10:45:13;;;;;;;2.63;1.77;;;22.80;94.60;;;;;;4977155;28;20561;-66
2023/08/26 10:47:44;;;;;;;2.83;1.60;;;22.70;94.70;;;;;;4977475;28;20459;-67
2023/08/26 10:50:18;;;;;;;5.23;1.43;;;22.70;95.70;;;;;;4982102;28;21336;-67
2023/08/26 10:52:47;;;;;;;2.30;1.73;;;22.60;95.00;;;;;;4981618;28;20468;-66
2023/08/26 10:55:20;;;;;;;2.10;1.53;;;22.60;96.00;;;;;;4984990;28;20799;-67
2023/08/26 10:58:13;;;;;;;2.73;1.90;;;22.70;96.10;;;;;;4985481;28;21234;-66
2023/08/26 11:00:41;;;;;;;3.40;2.00;;;22.50;93.60;;;;;;4983552;28;20834;-67
2023/08/26 11:03:09;;;;;;;4.37;2.17;;;22.40;95.80;;;;;;4979090;28;20457;-66
2023/08/26 11:05:39;;;;;;;2.77;1.80;;;22.40;93.50;;;;;;4976788;28;20469;-67
2023/08/26 11:08:06;;;;;;;2.33;2.13;;;22.40;94.00;;;;;;4987491;28;20908;-67
2023/08/26 11:10:35;;;;;;;2.73;1.37;;;22.60;96.10;;;;;;4992944;28;20581;-66
2023/08/26 11:13:03;;;;;;;2.70;1.50;;;22.80;94.50;;;;;;4983465;28;20487;-67
2023/08/26 11:15:35;;;;;;;3.80;2.00;;;22.90;94.90;;;;;;4978712;28;20453;-67
2023/08/26 11:18:02;;;;;;;3.00;1.63;;;23.10;95.80;;;;;;4978510;28;20542;-67
2023/08/26 11:20:29;;;;;;;3.13;2.10;;;23.00;93.40;;;;;;4992174;28;20496;-67
2023/08/26 11:22:58;;;;;;;3.33;2.17;;;23.20;93.70;;;;;;4985171;28;20773;-67
2023/08/26 11:25:25;;;;;;;6.00;2.20;;;23.30;94.10;;;;;;4979547;28;20482;-67
2023/08/26 11:27:52;;;;;;;5.80;1.90;;;23.40;94.20;;;;;;4982759;28;20464;-67
2023/08/26 11:30:19;;;;;;;2.90;1.70;;;23.50;94.90;;;;;;4986120;28;20459;-68
2023/08/26 11:32:49;;;;;;;3.17;1.93;;;23.90;94.20;;;;;;4990566;28;20487;-67
2023/08/26 11:35:16;;;;;;;3.20;1.93;;;24.10;93.00;;;;;;4980041;28;20815;-67
2023/08/26 11:37:44;;;;;;;2.60;2.10;;;24.20;93.80;;;;;;4983080;28;21095;-67
2023/08/26 11:40:15;;;;;;;2.20;1.93;;;24.20;94.20;;;;;;4982881;28;20544;-68
2023/08/26 11:42:42;;;;;;;2.27;1.60;;;24.10;94.30;;;;;;4985841;28;20471;-68
2023/08/26 11:45:10;;;;;;;4.13;2.60;;;24.20;94.80;;;;;;4993549;28;20555;-68
2023/08/26 11:47:37;;;;;;;2.30;1.93;;;24.00;93.30;;;;;;4982944;28;20467;-67
2023/08/26 11:50:04;;;;;;;6.53;2.50;;;23.90;93.80;;;;;;4978976;28;20476;-67
2023/08/26 11:52:36;;;;;;;4.13;2.20;;;24.00;95.60;;;;;;4992426;28;21076;-67
2023/08/26 11:55:04;;;;;;;2.47;1.87;;;24.10;94.20;;;;;;4967481;28;20490;-70
2023/08/26 11:57:35;;;;;;;4.87;2.23;;;23.70;92.10;;;;;;4980319;28;20561;-68
2023/08/26 12:00:10;;;;;;;8.13;3.80;;;24.00;93.40;;;;;;4970927;28;20474;-68
2023/08/26 12:02:37;;;;;;;2.90;2.27;;;24.00;93.50;;;;;;4986205;28;20866;-67
2023/08/26 12:05:05;;;;;;;2.50;2.30;;;24.10;95.90;;;;;;4981929;28;20536;-66
2023/08/26 12:07:32;;;;;;;2.90;2.60;;;23.90;93.50;;;;;;4981624;28;21017;-68
2023/08/26 12:10:10;;;;;;;4.53;2.10;;;24.00;93.70;;;;;;4983659;28;20828;-68
2023/08/26 12:12:38;;;;;;;2.40;2.03;;;24.10;93.90;;;;;;4983700;28;21024;-68
2023/08/26 12:15:06;;;;;;;3.00;2.57;;;24.10;94.20;;;;;;4986112;28;20562;-67
2023/08/26 12:17:42;;;;;;;4.30;2.50;;;24.10;94.00;;;;;;4983270;28;20487;-67
2023/08/26 12:20:23;;;;;;;2.30;2.10;;;24.40;94.80;;;;;;4980930;28;20591;-68
2023/08/26 12:22:52;;;;;;;5.10;2.47;;;24.80;94.60;;;;;;4992889;28;20486;-68
2023/08/26 12:25:23;;;;;;;11.00;2.90;;;24.60;93.60;;;;;;4980402;28;20549;-68
2023/08/26 12:27:52;;;;;;;3.87;2.80;;;24.60;94.10;;;;;;4980043;28;20533;-68
2023/08/26 12:30:20;;;;;;;2.73;2.40;;;24.60;94.00;;;;;;4984655;28;20563;-68
2023/08/26 12:32:47;;;;;;;2.67;2.43;;;24.50;93.40;;;;;;4992044;28;20700;-68
2023/08/26 12:35:14;;;;;;;5.70;2.57;;;24.40;94.20;;;;;;4980424;28;20473;-68
2023/08/26 12:37:41;;;;;;;4.00;2.20;;;24.40;93.20;;;;;;4991156;28;20459;-68
2023/08/26 12:40:10;;;;;;;9.80;3.80;;;24.20;93.80;;;;;;4988680;28;20885;-68
2023/08/26 12:42:37;;;;;;;3.30;2.77;;;24.20;94.90;;;;;;4984488;28;20615;-68
2023/08/26 12:45:07;;;;;;;3.87;3.17;;;24.20;93.80;;;;;;4984107;28;20524;-70
2023/08/26 12:47:34;;;;;;;2.90;2.40;;;24.20;94.50;;;;;;4980916;28;20829;-68
2023/08/26 12:50:01;;;;;;;4.13;2.40;;;24.10;92.50;;;;;;4978696;28;21033;-67